sensor_id;sensor_type;location;lat;lon;timestamp;pressure;altitude;pressure_sealevel;temperature;humidity
550;BME280;20066;48.764;9.176;2024-03-02T00:00:49;97045.94;;;10.13;64.21
550;BME280;20066;48.764;9.176;2024-03-02T00:03:19;97049.13;;;10.04;63.87
550;BME280;20066;48.764;9.176;2024-03-02T00:05:50;97058.47;;;9.96;64.47
550;BME280;20066;48.764;9.176;2024-03-02T00:08:24;97055.56;;;9.87;64.75
550;BME280;20066;48.764;9.176;2024-03-02T00:10:57;97055.31;;;10.51;62.23
550;BME280;20066;48.764;9.176;2024-03-02T00:13:29;97051.72;;;9.88;63.42
550;BME280;20066;48.764;9.176;2024-03-02T00:15:58;97052.84;;;8.99;66.84
550;BME280;20066;48.764;9.176;2024-03-02T00:18:27;97049.34;;;9.06;67.12
550;BME280;20066;48.764;9.176;2024-03-02T00:20:58;97043.56;;;9.07;66.77
550;BME280;20066;48.764;9.176;2024-03-02T00:23:28;97051.34;;;9.59;65.37
550;BME280;20066;48.764;9.176;2024-03-02T00:25:58;97050.72;;;10.01;63.74
550;BME280;20066;48.764;9.176;2024-03-02T00:28:30;97045.44;;;8.35;68.96
550;BME280;20066;48.764;9.176;2024-03-02T00:31:03;97045.66;;;8.55;69.35
550;BME280;20066;48.764;9.176;2024-03-02T00:33:32;97048.97;;;8.66;68.59
550;BME280;20066;48.764;9.176;2024-03-02T00:36:02;97056.13;;;8.80;68.03
550;BME280;20066;48.764;9.176;2024-03-02T00:38:31;97065.34;;;8.79;68.48
550;BME280;20066;48.764;9.176;2024-03-02T00:41:00;97058.47;;;8.78;67.96
550;BME280;20066;48.764;9.176;2024-03-02T00:43:47;97055.56;;;8.13;69.99
550;BME280;20066;48.764;9.176;2024-03-02T00:46:18;97051.63;;;7.77;71.90
550;BME280;20066;48.764;9.176;2024-03-02T00:48:56;97045.34;;;8.01;71.49
550;BME280;20066;48.764;9.176;2024-03-02T00:51:27;97043.03;;;8.48;69.92
550;BME280;20066;48.764;9.176;2024-03-02T00:53:58;97043.47;;;8.80;68.11
550;BME280;20066;48.764;9.176;2024-03-02T00:56:26;97043.97;;;8.27;70.90
550;BME280;20066;48.764;9.176;2024-03-02T00:58:56;97038.59;;;7.83;71.05
550;BME280;20066;48.764;9.176;2024-03-02T01:01:24;97039.81;;;8.23;70.84
550;BME280;20066;48.764;9.176;2024-03-02T01:03:52;97037.44;;;8.73;69.38
550;BME280;20066;48.764;9.176;2024-03-02T01:06:20;97043.88;;;8.38;69.22
550;BME280;20066;48.764;9.176;2024-03-02T01:08:49;97039.72;;;7.85;70.66
550;BME280;20066;48.764;9.176;2024-03-02T01:11:19;97037.69;;;8.48;69.36
550;BME280;20066;48.764;9.176;2024-03-02T01:13:49;97042.34;;;9.42;65.88
550;BME280;20066;48.764;9.176;2024-03-02T01:16:20;97042.31;;;8.81;68.11
550;BME280;20066;48.764;9.176;2024-03-02T01:18:48;97051.53;;;9.14;66.61
550;BME280;20066;48.764;9.176;2024-03-02T01:21:18;97046.28;;;9.04;66.65
550;BME280;20066;48.764;9.176;2024-03-02T01:23:46;97042.50;;;9.32;66.28
550;BME280;20066;48.764;9.176;2024-03-02T01:26:14;97034.56;;;9.51;64.94
550;BME280;20066;48.764;9.176;2024-03-02T01:28:42;97038.00;;;9.25;66.07
550;BME280;20066;48.764;9.176;2024-03-02T01:31:10;97037.84;;;8.71;67.35
550;BME280;20066;48.764;9.176;2024-03-02T01:33:39;97041.91;;;8.86;67.68
550;BME280;20066;48.764;9.176;2024-03-02T01:36:07;97045.84;;;9.69;64.22
550;BME280;20066;48.764;9.176;2024-03-02T01:38:35;97045.72;;;9.77;64.07
550;BME280;20066;48.764;9.176;2024-03-02T01:41:03;97059.34;;;9.89;63.12
550;BME280;20066;48.764;9.176;2024-03-02T01:43:31;97055.72;;;9.76;63.24
550;BME280;20066;48.764;9.176;2024-03-02T01:45:59;97053.75;;;10.30;61.80
550;BME280;20066;48.764;9.176;2024-03-02T01:48:26;97054.44;;;10.11;61.74
550;BME280;20066;48.764;9.176;2024-03-02T01:50:56;97058.78;;;10.01;62.52
550;BME280;20066;48.764;9.176;2024-03-02T01:53:24;97049.56;;;10.02;61.90
550;BME280;20066;48.764;9.176;2024-03-02T01:55:51;97051.53;;;8.80;65.71
550;BME280;20066;48.764;9.176;2024-03-02T01:58:19;97049.31;;;9.40;65.01
550;BME280;20066;48.764;9.176;2024-03-02T02:00:47;97053.94;;;9.93;62.92
550;BME280;20066;48.764;9.176;2024-03-02T02:03:17;97048.72;;;9.25;64.99
550;BME280;20066;48.764;9.176;2024-03-02T02:05:45;97050.84;;;9.94;62.75
550;BME280;20066;48.764;9.176;2024-03-02T02:08:15;97047.06;;;10.15;61.32
550;BME280;20066;48.764;9.176;2024-03-02T02:10:43;97047.94;;;10.08;62.09
550;BME280;20066;48.764;9.176;2024-03-02T02:13:11;97044.84;;;8.96;65.82
550;BME280;20066;48.764;9.176;2024-03-02T02:15:39;97034.44;;;8.23;68.00
550;BME280;20066;48.764;9.176;2024-03-02T02:18:07;97029.84;;;9.02;66.31
550;BME280;20066;48.764;9.176;2024-03-02T02:20:35;97036.34;;;9.61;63.68
550;BME280;20066;48.764;9.176;2024-03-02T02:23:05;97029.75;;;9.66;63.21
550;BME280;20066;48.764;9.176;2024-03-02T02:25:34;97031.13;;;9.24;64.79
550;BME280;20066;48.764;9.176;2024-03-02T02:28:02;97023.84;;;9.21;64.80
550;BME280;20066;48.764;9.176;2024-03-02T02:30:31;97030.19;;;9.34;64.16
550;BME280;20066;48.764;9.176;2024-03-02T02:32:59;97025.56;;;9.08;65.15
550;BME280;20066;48.764;9.176;2024-03-02T02:35:27;97024.50;;;9.59;63.57
550;BME280;20066;48.764;9.176;2024-03-02T02:37:57;97023.31;;;9.63;63.18
550;BME280;20066;48.764;9.176;2024-03-02T02:40:27;97022.28;;;8.93;65.83
550;BME280;20066;48.764;9.176;2024-03-02T02:42:57;97020.50;;;9.13;64.68
550;BME280;20066;48.764;9.176;2024-03-02T02:45:25;97007.81;;;9.17;64.43
550;BME280;20066;48.764;9.176;2024-03-02T02:47:53;97004.19;;;9.31;63.75
550;BME280;20066;48.764;9.176;2024-03-02T02:50:21;96996.38;;;9.13;64.09
550;BME280;20066;48.764;9.176;2024-03-02T02:52:49;97002.56;;;9.10;64.34
550;BME280;20066;48.764;9.176;2024-03-02T02:55:17;96995.94;;;9.18;64.13
550;BME280;20066;48.764;9.176;2024-03-02T02:57:46;96997.09;;;9.17;63.71
550;BME280;20066;48.764;9.176;2024-03-02T03:00:15;96995.75;;;8.68;65.53
550;BME280;20066;48.764;9.176;2024-03-02T03:02:46;97008.66;;;8.39;66.21
550;BME280;20066;48.764;9.176;2024-03-02T03:05:16;97004.16;;;7.85;69.23
550;BME280;20066;48.764;9.176;2024-03-02T03:07:44;97011.88;;;8.20;68.16
550;BME280;20066;48.764;9.176;2024-03-02T03:10:15;97005.31;;;8.28;67.47
550;BME280;20066;48.764;9.176;2024-03-02T03:12:43;97001.09;;;8.31;67.47
550;BME280;20066;48.764;9.176;2024-03-02T03:15:13;97011.84;;;8.68;66.12
550;BME280;20066;48.764;9.176;2024-03-02T03:17:41;97019.59;;;8.56;66.28
550;BME280;20066;48.764;9.176;2024-03-02T03:20:09;97006.69;;;8.84;64.89
550;BME280;20066;48.764;9.176;2024-03-02T03:22:37;97006.91;;;8.97;64.71
550;BME280;20066;48.764;9.176;2024-03-02T03:25:06;97015.72;;;8.98;64.61
550;BME280;20066;48.764;9.176;2024-03-02T03:27:35;97006.81;;;9.04;63.83
550;BME280;20066;48.764;9.176;2024-03-02T03:30:03;97003.22;;;8.87;64.37
550;BME280;20066;48.764;9.176;2024-03-02T03:32:34;97004.47;;;8.76;64.54
550;BME280;20066;48.764;9.176;2024-03-02T03:35:02;97013.44;;;8.59;64.44
550;BME280;20066;48.764;9.176;2024-03-02T03:37:30;97010.72;;;8.62;64.79
550;BME280;20066;48.764;9.176;2024-03-02T03:40:01;97010.53;;;8.01;66.90
550;BME280;20066;48.764;9.176;2024-03-02T03:42:29;97011.88;;;8.20;67.11
550;BME280;20066;48.764;9.176;2024-03-02T03:44:57;97008.59;;;8.46;65.46
550;BME280;20066;48.764;9.176;2024-03-02T03:47:25;97009.53;;;8.67;65.12
550;BME280;20066;48.764;9.176;2024-03-02T03:49:54;97009.91;;;8.69;64.80
550;BME280;20066;48.764;9.176;2024-03-02T03:52:22;97007.66;;;8.64;64.38
550;BME280;20066;48.764;9.176;2024-03-02T03:54:50;97012.59;;;8.65;64.88
550;BME280;20066;48.764;9.176;2024-03-02T03:57:18;97015.88;;;8.42;65.49
550;BME280;20066;48.764;9.176;2024-03-02T03:59:45;97011.00;;;8.34;66.26
550;BME280;20066;48.764;9.176;2024-03-02T04:02:13;97007.66;;;8.64;65.04
550;BME280;20066;48.764;9.176;2024-03-02T04:04:41;97017.53;;;8.33;66.41
550;BME280;20066;48.764;9.176;2024-03-02T04:07:11;97015.97;;;7.91;68.01
550;BME280;20066;48.764;9.176;2024-03-02T04:09:39;97007.66;;;8.23;66.48
550;BME280;20066;48.764;9.176;2024-03-02T04:12:07;97016.34;;;8.34;66.50
550;BME280;20066;48.764;9.176;2024-03-02T04:14:35;97013.81;;;8.57;65.32
550;BME280;20066;48.764;9.176;2024-03-02T04:17:04;97015.03;;;8.52;65.32
550;BME280;20066;48.764;9.176;2024-03-02T04:19:32;97019.47;;;8.70;64.84
550;BME280;20066;48.764;9.176;2024-03-02T04:22:01;97013.16;;;8.08;66.99
550;BME280;20066;48.764;9.176;2024-03-02T04:24:42;97013.94;;;8.46;65.58
550;BME280;20066;48.764;9.176;2024-03-02T04:27:10;96999.59;;;8.67;64.53
550;BME280;20066;48.764;9.176;2024-03-02T04:29:38;97006.47;;;8.68;64.35
550;BME280;20066;48.764;9.176;2024-03-02T04:32:06;97003.63;;;8.82;63.71
550;BME280;20066;48.764;9.176;2024-03-02T04:34:47;97008.41;;;8.64;64.41
550;BME280;20066;48.764;9.176;2024-03-02T04:37:15;97014.78;;;7.95;66.62
550;BME280;20066;48.764;9.176;2024-03-02T04:39:45;97011.13;;;8.20;66.43
550;BME280;20066;48.764;9.176;2024-03-02T04:42:13;97014.03;;;8.39;65.41
550;BME280;20066;48.764;9.176;2024-03-02T04:44:41;97017.25;;;8.20;65.73
550;BME280;20066;48.764;9.176;2024-03-02T04:47:09;97018.91;;;8.07;66.75
550;BME280;20066;48.764;9.176;2024-03-02T04:49:37;97011.34;;;8.39;65.34
550;BME280;20066;48.764;9.176;2024-03-02T04:52:05;97010.94;;;8.41;65.03
550;BME280;20066;48.764;9.176;2024-03-02T04:54:33;97006.69;;;8.47;64.58
550;BME280;20066;48.764;9.176;2024-03-02T04:57:22;97013.28;;;8.35;64.90
550;BME280;20066;48.764;9.176;2024-03-02T04:59:49;97012.66;;;8.58;64.01
550;BME280;20066;48.764;9.176;2024-03-02T05:02:17;97014.72;;;8.43;64.52
550;BME280;20066;48.764;9.176;2024-03-02T05:04:45;97016.34;;;7.89;66.39
550;BME280;20066;48.764;9.176;2024-03-02T05:07:14;97015.41;;;7.58;67.63
550;BME280;20066;48.764;9.176;2024-03-02T05:09:42;97015.47;;;7.55;68.19
550;BME280;20066;48.764;9.176;2024-03-02T05:12:10;97015.16;;;7.97;66.98
550;BME280;20066;48.764;9.176;2024-03-02T05:14:57;97020.19;;;7.88;67.30
550;BME280;20066;48.764;9.176;2024-03-02T05:17:25;97018.00;;;7.76;67.98
550;BME280;20066;48.764;9.176;2024-03-02T05:19:53;97022.28;;;7.63;68.20
550;BME280;20066;48.764;9.176;2024-03-02T05:22:20;97014.13;;;7.22;69.01
550;BME280;20066;48.764;9.176;2024-03-02T05:27:16;97021.25;;;7.46;69.93
550;BME280;20066;48.764;9.176;2024-03-02T05:29:44;97020.38;;;8.11;67.02
550;BME280;20066;48.764;9.176;2024-03-02T05:32:15;97022.25;;;7.70;67.66
550;BME280;20066;48.764;9.176;2024-03-02T05:34:44;97019.66;;;7.52;69.09
550;BME280;20066;48.764;9.176;2024-03-02T05:37:13;97026.03;;;7.07;71.17
550;BME280;20066;48.764;9.176;2024-03-02T05:39:40;97026.47;;;7.64;69.55
550;BME280;20066;48.764;9.176;2024-03-02T05:42:10;97021.75;;;7.82;68.21
550;BME280;20066;48.764;9.176;2024-03-02T05:44:38;97028.91;;;7.96;67.40
550;BME280;20066;48.764;9.176;2024-03-02T05:47:07;97026.03;;;8.21;66.56
550;BME280;20066;48.764;9.176;2024-03-02T05:49:37;97027.50;;;8.32;65.89
550;BME280;20066;48.764;9.176;2024-03-02T05:52:06;97031.34;;;7.80;68.06
550;BME280;20066;48.764;9.176;2024-03-02T05:54:34;97032.28;;;7.48;69.08
550;BME280;20066;48.764;9.176;2024-03-02T05:57:03;97029.41;;;7.84;67.97
550;BME280;20066;48.764;9.176;2024-03-02T05:59:48;97036.88;;;8.06;67.10
550;BME280;20066;48.764;9.176;2024-03-02T06:02:17;97034.06;;;8.24;66.05
550;BME280;20066;48.764;9.176;2024-03-02T06:04:46;97038.47;;;8.41;65.25
550;BME280;20066;48.764;9.176;2024-03-02T06:07:14;97041.59;;;7.26;70.00
550;BME280;20066;48.764;9.176;2024-03-02T06:09:43;97037.56;;;6.86;71.76
550;BME280;20066;48.764;9.176;2024-03-02T06:12:11;97040.41;;;7.37;70.24
550;BME280;20066;48.764;9.176;2024-03-02T06:14:39;97034.81;;;7.73;68.39
550;BME280;20066;48.764;9.176;2024-03-02T06:17:07;97042.63;;;8.05;67.48
550;BME280;20066;48.764;9.176;2024-03-02T06:19:35;97039.75;;;8.30;66.34
550;BME280;20066;48.764;9.176;2024-03-02T06:22:04;97029.34;;;8.35;66.03
550;BME280;20066;48.764;9.176;2024-03-02T06:24:32;97034.13;;;8.17;66.68
550;BME280;20066;48.764;9.176;2024-03-02T06:27:00;97037.63;;;7.55;67.85
550;BME280;20066;48.764;9.176;2024-03-02T06:29:28;97045.31;;;8.05;67.05
550;BME280;20066;48.764;9.176;2024-03-02T06:31:56;97045.91;;;7.71;67.99
550;BME280;20066;48.764;9.176;2024-03-02T06:34:25;97054.69;;;8.27;66.35
550;BME280;20066;48.764;9.176;2024-03-02T06:36:53;97057.97;;;8.01;66.79
550;BME280;20066;48.764;9.176;2024-03-02T06:39:23;97062.16;;;7.36;68.34
550;BME280;20066;48.764;9.176;2024-03-02T06:41:52;97060.19;;;7.54;69.32
550;BME280;20066;48.764;9.176;2024-03-02T06:44:20;97055.06;;;8.29;66.44
550;BME280;20066;48.764;9.176;2024-03-02T06:46:48;97058.41;;;8.40;66.14
550;BME280;20066;48.764;9.176;2024-03-02T06:49:17;97054.19;;;8.80;64.34
550;BME280;20066;48.764;9.176;2024-03-02T06:51:46;97056.50;;;7.93;66.92
550;BME280;20066;48.764;9.176;2024-03-02T06:54:14;97057.91;;;8.52;65.47
550;BME280;20066;48.764;9.176;2024-03-02T06:56:44;97062.75;;;8.24;66.47
550;BME280;20066;48.764;9.176;2024-03-02T06:59:14;97066.84;;;8.39;66.77
550;BME280;20066;48.764;9.176;2024-03-02T07:01:42;97064.59;;;8.75;65.22
550;BME280;20066;48.764;9.176;2024-03-02T07:04:10;97059.00;;;8.18;67.12
550;BME280;20066;48.764;9.176;2024-03-02T07:06:39;97051.81;;;8.04;68.58
550;BME280;20066;48.764;9.176;2024-03-02T07:09:07;97057.28;;;8.38;67.67
550;BME280;20066;48.764;9.176;2024-03-02T07:11:37;97064.66;;;9.05;65.07
550;BME280;20066;48.764;9.176;2024-03-02T07:14:07;97061.81;;;9.19;64.48
550;BME280;20066;48.764;9.176;2024-03-02T07:16:37;97068.19;;;9.33;64.11
550;BME280;20066;48.764;9.176;2024-03-02T07:19:07;97057.97;;;9.51;63.16
550;BME280;20066;48.764;9.176;2024-03-02T07:21:35;97050.16;;;9.33;63.68
550;BME280;20066;48.764;9.176;2024-03-02T07:24:03;97065.03;;;9.68;62.81
550;BME280;20066;48.764;9.176;2024-03-02T07:26:31;97068.22;;;9.59;62.80
550;BME280;20066;48.764;9.176;2024-03-02T07:29:03;97060.81;;;9.67;62.57
550;BME280;20066;48.764;9.176;2024-03-02T07:31:32;97059.16;;;8.85;65.34
550;BME280;20066;48.764;9.176;2024-03-02T07:34:00;97063.06;;;9.72;63.05
550;BME280;20066;48.764;9.176;2024-03-02T07:36:29;97057.25;;;10.27;61.37
550;BME280;20066;48.764;9.176;2024-03-02T07:38:57;97069.34;;;10.39;61.04
550;BME280;20066;48.764;9.176;2024-03-02T07:41:24;97067.19;;;10.30;60.58
550;BME280;20066;48.764;9.176;2024-03-02T07:43:53;97062.50;;;8.93;64.64
550;BME280;20066;48.764;9.176;2024-03-02T07:46:21;97067.06;;;9.87;61.80
550;BME280;20066;48.764;9.176;2024-03-02T07:48:50;97068.81;;;9.97;62.13
550;BME280;20066;48.764;9.176;2024-03-02T07:51:19;97065.03;;;10.45;60.74
550;BME280;20066;48.764;9.176;2024-03-02T07:53:47;97066.50;;;10.26;61.19
550;BME280;20066;48.764;9.176;2024-03-02T07:56:15;97085.66;;;10.52;60.25
550;BME280;20066;48.764;9.176;2024-03-02T07:58:48;97080.19;;;10.78;59.27
550;BME280;20066;48.764;9.176;2024-03-02T08:01:16;97072.91;;;10.56;59.22
550;BME280;20066;48.764;9.176;2024-03-02T08:03:45;97070.28;;;8.80;64.07
550;BME280;20066;48.764;9.176;2024-03-02T08:06:16;97073.16;;;10.15;61.16
550;BME280;20066;48.764;9.176;2024-03-02T08:08:44;97076.13;;;10.90;58.96
550;BME280;20066;48.764;9.176;2024-03-02T08:11:11;97065.88;;;11.25;57.67
550;BME280;20066;48.764;9.176;2024-03-02T08:13:40;97065.94;;;11.21;57.67
550;BME280;20066;48.764;9.176;2024-03-02T08:16:07;97067.41;;;11.97;55.54
550;BME280;20066;48.764;9.176;2024-03-02T08:18:36;97065.88;;;11.60;57.02
550;BME280;20066;48.764;9.176;2024-03-02T08:21:04;97072.53;;;11.36;58.24
550;BME280;20066;48.764;9.176;2024-03-02T08:23:33;97066.75;;;11.38;58.67
550;BME280;20066;48.764;9.176;2024-03-02T08:26:02;97060.06;;;11.66;58.08
550;BME280;20066;48.764;9.176;2024-03-02T08:28:30;97059.44;;;12.10;56.00
550;BME280;20066;48.764;9.176;2024-03-02T08:30:58;97060.53;;;14.11;51.95
550;BME280;20066;48.764;9.176;2024-03-02T08:33:26;97061.06;;;15.44;48.53
550;BME280;20066;48.764;9.176;2024-03-02T08:35:54;97051.69;;;16.92;44.20
550;BME280;20066;48.764;9.176;2024-03-02T08:38:22;97059.81;;;17.29;42.80
550;BME280;20066;48.764;9.176;2024-03-02T08:40:53;97065.38;;;19.67;38.80
550;BME280;20066;48.764;9.176;2024-03-02T08:43:21;97056.84;;;21.57;34.74
550;BME280;20066;48.764;9.176;2024-03-02T08:45:49;97062.38;;;21.36;33.50
550;BME280;20066;48.764;9.176;2024-03-02T08:48:17;97072.25;;;21.28;32.97
550;BME280;20066;48.764;9.176;2024-03-02T08:50:46;97066.13;;;20.52;33.35
550;BME280;20066;48.764;9.176;2024-03-02T08:53:14;97064.06;;;23.52;30.60
550;BME280;20066;48.764;9.176;2024-03-02T08:55:45;97065.81;;;23.55;29.30
550;BME280;20066;48.764;9.176;2024-03-02T08:58:15;97065.41;;;24.76;28.38
550;BME280;20066;48.764;9.176;2024-03-02T09:00:44;97062.44;;;23.01;29.16
550;BME280;20066;48.764;9.176;2024-03-02T09:03:12;97066.66;;;21.43;33.47
550;BME280;20066;48.764;9.176;2024-03-02T09:05:42;97071.06;;;25.06;27.76
550;BME280;20066;48.764;9.176;2024-03-02T09:08:10;97061.47;;;23.10;27.91
550;BME280;20066;48.764;9.176;2024-03-02T09:10:38;97060.28;;;26.14;25.74
550;BME280;20066;48.764;9.176;2024-03-02T09:13:06;97070.16;;;28.29;23.57
550;BME280;20066;48.764;9.176;2024-03-02T09:15:36;97061.09;;;25.44;25.31
550;BME280;20066;48.764;9.176;2024-03-02T09:18:06;97067.81;;;24.27;27.25
550;BME280;20066;48.764;9.176;2024-03-02T09:20:34;97059.81;;;23.68;27.70
550;BME280;20066;48.764;9.176;2024-03-02T09:23:03;97057.56;;;21.88;30.17
550;BME280;20066;48.764;9.176;2024-03-02T09:25:31;97051.16;;;20.13;32.67
550;BME280;20066;48.764;9.176;2024-03-02T09:27:59;97051.22;;;20.18;33.54
550;BME280;20066;48.764;9.176;2024-03-02T09:30:28;97054.94;;;20.15;32.83
550;BME280;20066;48.764;9.176;2024-03-02T09:32:58;97050.00;;;20.95;31.77
550;BME280;20066;48.764;9.176;2024-03-02T09:35:29;97051.81;;;22.66;29.55
550;BME280;20066;48.764;9.176;2024-03-02T09:37:57;97049.97;;;21.98;31.26
550;BME280;20066;48.764;9.176;2024-03-02T09:40:25;97043.16;;;20.85;32.85
550;BME280;20066;48.764;9.176;2024-03-02T09:42:54;97043.81;;;22.09;30.14
550;BME280;20066;48.764;9.176;2024-03-02T09:45:24;97034.59;;;22.12;30.67
550;BME280;20066;48.764;9.176;2024-03-02T09:47:52;97033.31;;;23.37;28.67
550;BME280;20066;48.764;9.176;2024-03-02T09:50:22;97030.88;;;23.61;28.89
550;BME280;20066;48.764;9.176;2024-03-02T09:52:50;97036.91;;;26.45;25.19
550;BME280;20066;48.764;9.176;2024-03-02T09:55:19;97033.34;;;28.47;23.71
550;BME280;20066;48.764;9.176;2024-03-02T09:57:48;97032.81;;;28.75;21.72
550;BME280;20066;48.764;9.176;2024-03-02T10:00:18;97033.16;;;26.67;23.96
550;BME280;20066;48.764;9.176;2024-03-02T10:02:46;97022.56;;;27.91;22.84
550;BME280;20066;48.764;9.176;2024-03-02T10:05:25;97021.13;;;25.26;25.38
550;BME280;20066;48.764;9.176;2024-03-02T10:08:01;97022.16;;;25.58;25.02
550;BME280;20066;48.764;9.176;2024-03-02T10:10:37;97013.56;;;22.94;27.93
550;BME280;20066;48.764;9.176;2024-03-02T10:13:07;97013.44;;;22.12;29.35
550;BME280;20066;48.764;9.176;2024-03-02T10:15:37;97008.09;;;21.61;30.36
550;BME280;20066;48.764;9.176;2024-03-02T10:18:08;97012.06;;;22.98;28.45
550;BME280;20066;48.764;9.176;2024-03-02T10:20:39;97017.50;;;24.49;26.45
550;BME280;20066;48.764;9.176;2024-03-02T10:23:11;97013.03;;;24.40;26.92
550;BME280;20066;48.764;9.176;2024-03-02T10:25:40;97011.91;;;23.63;28.60
550;BME280;20066;48.764;9.176;2024-03-02T10:28:20;97015.03;;;24.40;27.61
550;BME280;20066;48.764;9.176;2024-03-02T10:30:48;97010.50;;;22.21;30.36
550;BME280;20066;48.764;9.176;2024-03-02T10:33:18;97003.59;;;21.26;31.67
550;BME280;20066;48.764;9.176;2024-03-02T10:35:47;96998.50;;;21.76;31.71
550;BME280;20066;48.764;9.176;2024-03-02T10:38:17;96998.34;;;21.54;30.61
550;BME280;20066;48.764;9.176;2024-03-02T10:40:46;96992.06;;;22.16;30.55
550;BME280;20066;48.764;9.176;2024-03-02T10:43:14;96999.59;;;22.97;28.61
550;BME280;20066;48.764;9.176;2024-03-02T10:45:44;97007.28;;;24.44;27.48
550;BME280;20066;48.764;9.176;2024-03-02T10:48:15;96988.66;;;21.59;31.20
550;BME280;20066;48.764;9.176;2024-03-02T10:50:43;96985.38;;;21.49;31.94
550;BME280;20066;48.764;9.176;2024-03-02T10:53:12;96977.56;;;21.10;31.66
550;BME280;20066;48.764;9.176;2024-03-02T10:55:40;96983.91;;;23.31;30.49
550;BME280;20066;48.764;9.176;2024-03-02T10:58:12;96975.53;;;22.05;30.19
550;BME280;20066;48.764;9.176;2024-03-02T11:00:43;96962.34;;;20.37;33.98
550;BME280;20066;48.764;9.176;2024-03-02T11:03:13;96968.91;;;20.46;33.87
550;BME280;20066;48.764;9.176;2024-03-02T11:05:44;96969.44;;;23.14;29.88
550;BME280;20066;48.764;9.176;2024-03-02T11:08:16;96962.38;;;24.19;28.52
550;BME280;20066;48.764;9.176;2024-03-02T11:10:50;96964.44;;;24.65;27.72
550;BME280;20066;48.764;9.176;2024-03-02T11:13:22;96957.09;;;22.00;30.40
550;BME280;20066;48.764;9.176;2024-03-02T11:15:55;96963.16;;;24.08;27.75
550;BME280;20066;48.764;9.176;2024-03-02T11:18:24;96961.31;;;26.11;25.28
550;BME280;20066;48.764;9.176;2024-03-02T11:20:53;96952.47;;;22.88;28.81
550;BME280;20066;48.764;9.176;2024-03-02T11:23:31;96951.47;;;22.20;29.31
550;BME280;20066;48.764;9.176;2024-03-02T11:26:18;96934.56;;;19.78;32.18
550;BME280;20066;48.764;9.176;2024-03-02T11:28:47;96929.06;;;22.22;28.90
550;BME280;20066;48.764;9.176;2024-03-02T11:31:15;96925.38;;;20.88;29.74
550;BME280;20066;48.764;9.176;2024-03-02T11:33:43;96917.56;;;20.50;30.63
550;BME280;20066;48.764;9.176;2024-03-02T11:36:10;96915.91;;;22.32;27.92
550;BME280;20066;48.764;9.176;2024-03-02T11:38:43;96919.88;;;22.31;28.54
550;BME280;20066;48.764;9.176;2024-03-02T11:41:12;96917.28;;;22.86;27.16
550;BME280;20066;48.764;9.176;2024-03-02T11:43:41;96909.16;;;21.79;28.51
550;BME280;20066;48.764;9.176;2024-03-02T11:46:11;96898.75;;;20.83;29.17
550;BME280;20066;48.764;9.176;2024-03-02T11:48:40;96896.94;;;19.68;30.72
550;BME280;20066;48.764;9.176;2024-03-02T11:51:08;96901.66;;;18.20;33.77
550;BME280;20066;48.764;9.176;2024-03-02T11:53:40;96887.19;;;17.66;34.87
550;BME280;20066;48.764;9.176;2024-03-02T11:56:09;96884.69;;;17.54;35.88
550;BME280;20066;48.764;9.176;2024-03-02T11:58:39;96877.25;;;17.30;36.69
550;BME280;20066;48.764;9.176;2024-03-02T12:01:10;96876.34;;;17.81;35.43
550;BME280;20066;48.764;9.176;2024-03-02T12:03:38;96877.53;;;17.32;35.32
550;BME280;20066;48.764;9.176;2024-03-02T12:06:07;96866.78;;;18.09;34.28
550;BME280;20066;48.764;9.176;2024-03-02T12:08:34;96871.81;;;18.26;34.03
550;BME280;20066;48.764;9.176;2024-03-02T12:11:05;96861.34;;;16.45;37.73
550;BME280;20066;48.764;9.176;2024-03-02T12:13:35;96867.19;;;17.22;36.94
550;BME280;20066;48.764;9.176;2024-03-02T12:16:04;96864.72;;;17.57;36.80
550;BME280;20066;48.764;9.176;2024-03-02T12:18:32;96859.38;;;18.78;34.84
550;BME280;20066;48.764;9.176;2024-03-02T12:21:00;96853.25;;;17.29;37.35
550;BME280;20066;48.764;9.176;2024-03-02T12:23:30;96852.66;;;16.83;37.03
550;BME280;20066;48.764;9.176;2024-03-02T12:25:59;96847.00;;;16.53;37.49
550;BME280;20066;48.764;9.176;2024-03-02T12:28:28;96849.84;;;17.43;36.33
550;BME280;20066;48.764;9.176;2024-03-02T12:30:58;96841.53;;;16.63;37.71
550;BME280;20066;48.764;9.176;2024-03-02T12:33:26;96842.38;;;15.99;37.87
550;BME280;20066;48.764;9.176;2024-03-02T12:35:56;96839.00;;;16.50;37.59
550;BME280;20066;48.764;9.176;2024-03-02T12:38:25;96838.56;;;16.42;37.75
550;BME280;20066;48.764;9.176;2024-03-02T12:40:53;96832.94;;;16.64;37.42
550;BME280;20066;48.764;9.176;2024-03-02T12:43:21;96828.28;;;16.55;37.53
550;BME280;20066;48.764;9.176;2024-03-02T12:45:53;96825.31;;;15.80;39.38
550;BME280;20066;48.764;9.176;2024-03-02T12:48:23;96825.75;;;15.52;39.67
550;BME280;20066;48.764;9.176;2024-03-02T12:50:51;96818.16;;;16.65;37.32
550;BME280;20066;48.764;9.176;2024-03-02T12:53:21;96820.81;;;17.49;35.99
550;BME280;20066;48.764;9.176;2024-03-02T12:55:49;96819.13;;;17.76;36.47
550;BME280;20066;48.764;9.176;2024-03-02T12:58:18;96821.97;;;17.96;35.59
550;BME280;20066;48.764;9.176;2024-03-02T13:00:46;96812.78;;;16.89;37.81
550;BME280;20066;48.764;9.176;2024-03-02T13:03:18;96806.56;;;16.55;38.05
550;BME280;20066;48.764;9.176;2024-03-02T13:05:51;96814.16;;;17.50;36.62
550;BME280;20066;48.764;9.176;2024-03-02T13:08:20;96814.38;;;17.85;35.96
550;BME280;20066;48.764;9.176;2024-03-02T13:10:49;96814.38;;;18.24;35.28
550;BME280;20066;48.764;9.176;2024-03-02T13:13:17;96811.66;;;18.24;35.18
550;BME280;20066;48.764;9.176;2024-03-02T13:15:45;96799.63;;;18.60;35.42
550;BME280;20066;48.764;9.176;2024-03-02T13:20:51;96794.91;;;16.73;37.27
550;BME280;20066;48.764;9.176;2024-03-02T13:23:19;96793.53;;;15.99;38.46
550;BME280;20066;48.764;9.176;2024-03-02T13:25:47;96795.41;;;16.95;37.02
550;BME280;20066;48.764;9.176;2024-03-02T13:28:15;96788.50;;;16.52;38.23
550;BME280;20066;48.764;9.176;2024-03-02T13:30:44;96789.16;;;16.11;38.47
550;BME280;20066;48.764;9.176;2024-03-02T13:33:12;96794.81;;;17.48;36.15
550;BME280;20066;48.764;9.176;2024-03-02T13:35:41;96782.38;;;17.95;35.08
550;BME280;20066;48.764;9.176;2024-03-02T13:38:10;96789.44;;;16.31;37.70
550;BME280;20066;48.764;9.176;2024-03-02T13:40:38;96793.25;;;17.56;35.97
550;BME280;20066;48.764;9.176;2024-03-02T13:43:07;96792.88;;;16.92;37.10